createdAt,value
2022-12-11T00:03:20.714Z,21.75
2022-12-11T00:08:22.567Z,24.92
2022-12-11T00:13:24.358Z,19.98
2022-12-11T00:18:26.202Z,22.33
2022-12-11T00:23:28.153Z,21.80
2022-12-11T00:28:29.948Z,23.13
2022-12-11T00:33:31.835Z,21.80
2022-12-11T00:38:33.618Z,20.10
2022-12-11T00:43:35.630Z,20.88
2022-12-11T00:48:37.535Z,22.35
2022-12-11T00:53:39.484Z,22.63
2022-12-11T00:58:41.266Z,22.45
2022-12-11T01:03:43.092Z,21.20
2022-12-11T01:08:45.597Z,23.25
2022-12-11T01:13:47.399Z,22.50
2022-12-11T01:18:49.147Z,23.70
2022-12-11T01:23:51.491Z,25.13
2022-12-11T01:28:53.447Z,25.98
2022-12-11T01:33:55.630Z,23.23
2022-12-11T01:38:57.376Z,23.15
2022-12-11T01:44:04.627Z,27.17
2022-12-11T01:49:08.726Z,25.98
2022-12-11T01:54:12.761Z,26.83
2022-12-11T01:59:15.720Z,24.92
2022-12-11T02:04:18.660Z,26.75
2022-12-11T02:09:21.980Z,24.85
2022-12-11T02:14:26.854Z,25.90
2022-12-11T02:19:31.992Z,25.95
2022-12-11T02:24:46.116Z,25.05
2022-12-11T02:30:01.281Z,22.08
2022-12-11T02:35:15.311Z,25.67
2022-12-11T02:40:19.098Z,23.80
2022-12-11T02:45:21.979Z,27.17
2022-12-11T02:50:23.975Z,27.80
2022-12-11T02:55:26.272Z,24.88
2022-12-11T03:00:28.118Z,24.55
2022-12-11T03:05:30.469Z,25.52
2022-12-11T03:10:32.337Z,25.23
2022-12-11T03:15:38.030Z,25.80
2022-12-11T03:20:43.265Z,25.45
2022-12-11T03:25:55.737Z,25.80
2022-12-11T03:30:58.298Z,27.38
2022-12-11T03:36:03.648Z,26.08
2022-12-11T03:41:07.085Z,24.63
2022-12-11T03:46:09.612Z,26.83
2022-12-11T03:51:11.408Z,22.92
2022-12-11T03:56:14.501Z,23.95
2022-12-11T04:01:16.287Z,23.92
2022-12-11T04:06:18.415Z,21.60
2022-12-11T04:11:35.599Z,22.55
2022-12-11T04:16:37.352Z,22.40
2022-12-11T04:21:57.825Z,22.48
2022-12-11T04:27:00.084Z,21.13
2022-12-11T04:32:02.102Z,23.73
2022-12-11T04:37:03.925Z,21.70
2022-12-11T04:42:05.721Z,22.52
2022-12-11T04:47:07.868Z,21.17
2022-12-11T04:52:09.689Z,21.27
2022-12-11T04:57:11.486Z,21.88
2022-12-11T05:02:13.344Z,20.83
2022-12-11T05:07:15.112Z,20.63
2022-12-11T05:12:16.936Z,20.27
2022-12-11T05:17:19.146Z,20.95
2022-12-11T05:22:20.956Z,20.80
2022-12-11T05:27:23.148Z,19.15
2022-12-11T05:32:25.047Z,19.55
2022-12-11T05:37:26.927Z,17.70
2022-12-11T05:42:29.254Z,18.45
2022-12-11T05:47:31.666Z,16.80
2022-12-11T05:52:33.437Z,16.40
2022-12-11T05:57:35.233Z,16.98
2022-12-11T06:02:37.113Z,16.77
2022-12-11T06:07:39.034Z,16.70
2022-12-11T06:12:41.323Z,15.95
2022-12-11T06:17:43.148Z,17.08
2022-12-11T06:22:44.892Z,16.13
2022-12-11T06:27:46.633Z,16.35
2022-12-11T06:32:48.534Z,14.35
2022-12-11T06:37:50.323Z,14.32
2022-12-11T06:42:52.113Z,13.40
2022-12-11T06:47:53.948Z,14.93
2022-12-11T06:52:56.236Z,13.43
2022-12-11T06:57:57.969Z,14.73
2022-12-11T07:02:59.779Z,14.85
2022-12-11T07:08:01.742Z,14.88
2022-12-11T07:13:03.598Z,12.48
2022-12-11T07:18:05.449Z,11.68
2022-12-11T07:23:07.237Z,11.77
2022-12-11T07:28:10.134Z,12.00
2022-12-11T07:33:16.019Z,12.57
2022-12-11T07:38:17.838Z,13.70
2022-12-11T07:43:19.721Z,11.45
2022-12-11T07:48:21.662Z,11.80
2022-12-11T07:53:23.831Z,10.90
2022-12-11T07:58:25.682Z,11.20
2022-12-11T08:03:27.501Z,12.07
2022-12-11T08:08:29.296Z,12.18
2022-12-11T08:13:33.862Z,11.30
2022-12-11T08:18:36.456Z,12.65
2022-12-11T08:23:38.643Z,12.10
2022-12-11T08:28:41.113Z,12.27
2022-12-11T08:33:43.236Z,11.40
2022-12-11T08:38:44.982Z,12.95
2022-12-11T08:43:47.108Z,12.27
2022-12-11T08:48:48.989Z,12.30
2022-12-11T08:53:51.298Z,11.00
2022-12-11T08:58:53.189Z,11.30
2022-12-11T09:03:55.829Z,10.35
2022-12-11T09:08:58.969Z,11.20
2022-12-11T09:14:06.887Z,12.05
2022-12-11T09:19:13.881Z,12.75
2022-12-11T09:24:15.706Z,11.93
2022-12-11T09:29:17.561Z,11.75
2022-12-11T09:34:23.635Z,10.85
2022-12-11T09:39:29.280Z,12.10
2022-12-11T09:44:37.396Z,13.10
2022-12-11T09:49:40.761Z,12.15
2022-12-11T09:55:03.203Z,11.27
2022-12-11T10:00:28.474Z,12.88
2022-12-11T10:05:42.938Z,11.48
2022-12-11T10:11:00.740Z,12.55
2022-12-11T10:16:02.682Z,12.27
2022-12-11T10:21:04.932Z,11.32
2022-12-11T10:26:06.901Z,13.15
2022-12-11T10:31:12.524Z,12.18
2022-12-11T10:36:16.709Z,12.32
2022-12-11T10:41:21.058Z,13.48
2022-12-11T10:46:24.464Z,14.20
2022-12-11T10:51:34.057Z,15.50
2022-12-11T10:56:36.466Z,13.80
2022-12-11T11:01:38.259Z,14.18
2022-12-11T11:06:40.336Z,14.02
2022-12-11T11:11:50.105Z,13.50
2022-12-11T11:16:54.970Z,14.57
2022-12-11T11:21:59.071Z,12.27
2022-12-11T11:27:16.248Z,15.07
2022-12-11T11:32:20.988Z,13.17
2022-12-11T11:37:33.047Z,12.55
2022-12-11T11:42:41.373Z,13.95
2022-12-11T11:48:09.463Z,12.93
2022-12-11T11:53:22.255Z,12.32
2022-12-11T11:58:30.845Z,13.13
2022-12-11T12:03:32.611Z,14.27
2022-12-11T12:09:00.550Z,13.15
2022-12-11T12:14:02.323Z,12.02
2022-12-11T12:19:25.731Z,14.13
2022-12-11T12:24:30.582Z,13.32
2022-12-11T12:29:51.169Z,14.07
2022-12-11T12:35:04.387Z,13.52
2022-12-11T12:40:38.676Z,15.35
2022-12-11T12:45:45.383Z,13.15
2022-12-11T12:50:49.487Z,13.73
2022-12-11T12:55:51.945Z,13.68
2022-12-11T13:00:54.279Z,13.93
2022-12-11T13:06:03.932Z,13.55
2022-12-11T13:11:07.503Z,12.50
2022-12-11T13:16:15.323Z,12.13
2022-12-11T13:21:29.383Z,13.07
2022-12-11T13:26:32.833Z,13.02
2022-12-11T13:31:35.894Z,13.68
2022-12-11T13:36:40.053Z,12.88
2022-12-11T13:41:44.285Z,13.80
2022-12-11T13:46:46.171Z,11.45
2022-12-11T13:51:55.263Z,11.65
2022-12-11T13:56:57.208Z,12.32
2022-12-11T14:02:01.233Z,13.35
2022-12-11T14:07:06.761Z,11.60
2022-12-11T14:12:17.362Z,12.82
2022-12-11T14:17:26.938Z,12.00
2022-12-11T14:22:29.706Z,12.63
2022-12-11T14:27:31.512Z,12.30
2022-12-11T14:32:36.586Z,13.68
2022-12-11T14:37:39.126Z,12.75
2022-12-11T14:42:44.378Z,12.02
2022-12-11T14:47:46.715Z,12.75
2022-12-11T14:52:59.639Z,13.38
2022-12-11T14:58:03.237Z,12.23
2022-12-11T15:03:06.727Z,15.30
2022-12-11T15:08:11.938Z,12.93
2022-12-11T15:13:16.743Z,13.23
2022-12-11T15:18:26.478Z,12.65
2022-12-11T15:23:28.727Z,12.23
2022-12-11T15:28:33.323Z,12.70
2022-12-11T15:33:45.246Z,15.48
2022-12-11T15:38:47.433Z,13.63
2022-12-11T15:43:52.770Z,13.50
2022-12-11T15:48:57.700Z,14.23
2022-12-11T15:53:59.488Z,12.75
2022-12-11T15:59:04.517Z,14.77
2022-12-11T16:04:06.343Z,13.25
2022-12-11T16:09:08.218Z,15.57
2022-12-11T16:14:10.058Z,13.65
2022-12-11T16:19:11.914Z,14.77
2022-12-11T16:24:13.861Z,14.52
2022-12-11T16:29:15.758Z,12.65
2022-12-11T16:34:17.585Z,13.07
2022-12-11T16:39:19.359Z,14.00
2022-12-11T16:44:22.262Z,12.45
2022-12-11T16:49:24.461Z,11.40
2022-12-11T16:54:26.287Z,13.45
2022-12-11T16:59:31.099Z,12.98
2022-12-11T17:04:35.495Z,11.60
2022-12-11T17:09:38.404Z,11.73
2022-12-11T17:14:40.266Z,15.25
2022-12-11T17:19:42.060Z,13.07
2022-12-11T17:24:43.916Z,12.00
2022-12-11T17:29:47.341Z,12.13
2022-12-11T17:34:50.533Z,9.73
2022-12-11T17:39:52.351Z,11.95
2022-12-11T17:44:54.320Z,12.38
2022-12-11T17:49:56.151Z,12.13
2022-12-11T17:54:57.944Z,10.52
2022-12-11T18:00:00.077Z,12.90
2022-12-11T18:05:01.880Z,12.52
2022-12-11T18:10:04.014Z,12.38
2022-12-11T18:15:06.066Z,12.00
2022-12-11T18:20:08.171Z,12.57
2022-12-11T18:25:11.826Z,10.93
2022-12-11T18:30:14.470Z,11.00
2022-12-11T18:35:16.825Z,10.52
2022-12-11T18:40:18.734Z,13.73
2022-12-11T18:45:20.514Z,12.25
2022-12-11T18:50:22.299Z,11.85
2022-12-11T18:55:24.136Z,12.02
2022-12-11T19:00:26.677Z,10.82
2022-12-11T19:05:28.889Z,11.02
2022-12-11T19:10:30.686Z,12.68
2022-12-11T19:15:32.605Z,12.07
2022-12-11T19:20:48.936Z,11.88
2022-12-11T19:25:52.840Z,12.63
2022-12-11T19:30:54.621Z,12.02
2022-12-11T19:36:03.197Z,12.23
2022-12-11T19:41:06.841Z,11.95
2022-12-11T19:46:09.987Z,12.07
2022-12-11T19:51:16.604Z,11.40
2022-12-11T19:56:19.583Z,12.90
2022-12-11T20:01:28.536Z,14.02
2022-12-11T20:06:34.957Z,13.20
2022-12-11T20:11:37.899Z,13.18
2022-12-11T20:17:09.241Z,14.02
2022-12-11T20:22:02.224Z,13.38
2022-12-11T20:27:04.302Z,13.50
2022-12-11T20:32:07.465Z,15.02
2022-12-11T20:37:09.554Z,15.07
2022-12-11T20:42:11.842Z,12.85
2022-12-11T20:47:13.785Z,12.40
2022-12-11T20:52:15.741Z,14.45
2022-12-11T20:57:18.414Z,15.18
2022-12-11T21:02:20.476Z,13.45
2022-12-11T21:07:22.316Z,13.27
2022-12-11T21:12:29.778Z,14.63
2022-12-11T21:17:34.709Z,15.57
2022-12-11T21:22:36.463Z,15.32
2022-12-11T21:27:38.257Z,13.98
2022-12-11T21:32:40.126Z,17.23
2022-12-11T21:37:41.949Z,16.92
2022-12-11T21:42:43.711Z,13.63
2022-12-11T21:47:45.466Z,18.35
2022-12-11T21:52:47.238Z,15.60
2022-12-11T21:57:49.057Z,14.50
2022-12-11T22:02:51.092Z,17.05
2022-12-11T22:07:53.015Z,15.68
2022-12-11T22:12:55.425Z,15.00
2022-12-11T22:17:57.238Z,14.85
2022-12-11T22:22:59.005Z,15.48
2022-12-11T22:28:00.962Z,15.73
2022-12-11T22:33:03.013Z,15.07
2022-12-11T22:38:04.910Z,17.73
2022-12-11T22:43:07.099Z,17.13
2022-12-11T22:48:09.198Z,15.93
2022-12-11T22:53:10.974Z,15.20
2022-12-11T22:58:16.124Z,16.63
2022-12-11T23:03:22.104Z,15.88
2022-12-11T23:08:23.964Z,13.85
2022-12-11T23:13:25.769Z,14.18
2022-12-11T23:18:27.570Z,16.00
2022-12-11T23:23:29.494Z,17.60
2022-12-11T23:28:31.269Z,14.68
2022-12-11T23:33:33.089Z,14.43
2022-12-11T23:38:35.036Z,16.55
2022-12-11T23:43:37.249Z,15.50
2022-12-11T23:48:39.107Z,15.38
2022-12-11T23:53:41.389Z,15.65
2022-12-11T23:58:43.388Z,14.23
